createdAt,value
2019-02-11T00:00:47.666Z,1.30
2019-02-11T00:03:16.366Z,1.25
2019-02-11T00:05:45.046Z,1.42
2019-02-11T00:08:13.778Z,0.90
2019-02-11T00:10:42.696Z,1.30
2019-02-11T00:13:11.375Z,0.82
2019-02-11T00:15:40.337Z,0.80
2019-02-11T00:18:08.975Z,1.02
2019-02-11T00:20:37.651Z,1.20
2019-02-11T00:23:06.293Z,1.15
2019-02-11T00:25:36.161Z,0.93
2019-02-11T00:28:04.842Z,1.50
2019-02-11T00:30:34.339Z,1.10
2019-02-11T00:33:03.141Z,1.17
2019-02-11T00:35:31.811Z,1.57
2019-02-11T00:38:00.491Z,1.77
2019-02-11T00:40:29.189Z,1.32
2019-02-11T00:42:57.858Z,1.30
2019-02-11T00:45:26.493Z,1.30
2019-02-11T00:47:55.181Z,1.00
2019-02-11T00:50:23.971Z,1.05
2019-02-11T00:52:52.791Z,1.00
2019-02-11T00:55:21.481Z,1.40
2019-02-11T00:57:50.081Z,1.52
2019-02-11T01:00:18.965Z,1.30
2019-02-11T01:02:47.653Z,1.07
2019-02-11T01:05:16.309Z,1.25
2019-02-11T01:07:45.036Z,1.67
2019-02-11T01:10:13.756Z,1.05
2019-02-11T01:12:42.386Z,1.15
2019-02-11T01:15:11.946Z,1.50
2019-02-11T01:17:40.671Z,1.10
2019-02-11T01:20:11.153Z,1.62
2019-02-11T01:22:40.846Z,1.85
2019-02-11T01:25:09.548Z,1.65
2019-02-11T01:27:38.311Z,1.35
2019-02-11T01:30:09.960Z,1.27
2019-02-11T01:32:38.655Z,1.32
2019-02-11T01:35:07.866Z,1.25
2019-02-11T01:37:36.556Z,1.17
2019-02-11T01:40:08.267Z,1.20
2019-02-11T01:42:36.971Z,1.17
2019-02-11T01:45:08.572Z,1.12
2019-02-11T01:47:37.281Z,1.30
2019-02-11T01:50:09.041Z,1.30
2019-02-11T01:52:37.799Z,1.45
2019-02-11T01:55:06.517Z,1.27
2019-02-11T01:57:35.191Z,1.50
2019-02-11T02:00:04.811Z,1.42
2019-02-11T02:02:33.501Z,1.70
2019-02-11T02:05:02.181Z,1.60
2019-02-11T02:07:30.935Z,2.02
2019-02-11T02:09:59.582Z,1.30
2019-02-11T02:12:28.491Z,1.30
2019-02-11T02:14:57.582Z,1.85
2019-02-11T02:17:26.320Z,1.95
2019-02-11T02:19:54.941Z,2.05
2019-02-11T02:22:23.761Z,1.60
2019-02-11T02:24:52.417Z,1.50
2019-02-11T02:27:21.140Z,1.30
2019-02-11T02:29:49.974Z,1.37
2019-02-11T02:32:18.892Z,1.02
2019-02-11T02:34:47.683Z,1.85
2019-02-11T02:37:16.565Z,1.60
2019-02-11T02:39:45.390Z,1.75
2019-02-11T02:42:14.071Z,1.52
2019-02-11T02:44:42.746Z,1.25
2019-02-11T02:47:11.353Z,1.30
2019-02-11T02:49:40.015Z,1.45
2019-02-11T02:52:08.945Z,1.82
2019-02-11T02:54:37.635Z,1.62
2019-02-11T02:57:06.377Z,1.72
2019-02-11T02:59:35.026Z,2.65
2019-02-11T03:02:03.696Z,1.67
2019-02-11T03:04:32.141Z,1.35
2019-02-11T03:07:00.911Z,2.15
2019-02-11T03:09:29.715Z,1.52
2019-02-11T03:11:59.480Z,1.17
2019-02-11T03:14:28.223Z,1.32
2019-02-11T03:16:56.890Z,0.90
2019-02-11T03:19:25.571Z,1.50
2019-02-11T03:21:54.352Z,1.80
2019-02-11T03:24:22.975Z,1.72
2019-02-11T03:26:51.654Z,1.82
2019-02-11T03:29:20.452Z,1.90
2019-02-11T03:31:49.137Z,1.87
2019-02-11T03:34:17.810Z,1.37
2019-02-11T03:36:46.561Z,1.65
2019-02-11T03:39:15.461Z,1.37
2019-02-11T03:41:44.251Z,1.20
2019-02-11T03:44:15.033Z,1.77
2019-02-11T03:46:43.574Z,0.95
2019-02-11T03:49:12.451Z,1.17
2019-02-11T03:51:41.235Z,1.45
2019-02-11T03:54:10.126Z,1.37
2019-02-11T03:56:38.915Z,1.10
2019-02-11T03:59:08.012Z,1.37
2019-02-11T04:01:36.800Z,1.72
2019-02-11T04:04:05.691Z,1.20
2019-02-11T04:06:34.480Z,1.95
2019-02-11T04:09:05.006Z,1.60
2019-02-11T04:11:33.901Z,1.10
2019-02-11T04:14:02.797Z,3.12
2019-02-11T04:16:31.476Z,3.10
2019-02-11T04:19:00.241Z,3.50
2019-02-11T04:21:29.053Z,3.17
2019-02-11T04:23:57.946Z,2.75
2019-02-11T04:26:26.727Z,3.33
2019-02-11T04:28:55.725Z,2.77
2019-02-11T04:31:24.610Z,2.87
2019-02-11T04:33:53.523Z,3.83
2019-02-11T04:36:22.414Z,3.17
2019-02-11T04:38:51.306Z,3.22
2019-02-11T04:41:20.179Z,2.67
2019-02-11T04:43:49.067Z,2.27
2019-02-11T04:46:18.186Z,2.95
2019-02-11T04:48:46.857Z,2.95
2019-02-11T04:51:15.571Z,2.70
2019-02-11T04:53:44.304Z,2.60
2019-02-11T04:56:12.981Z,2.98
2019-02-11T04:58:41.802Z,2.65
2019-02-11T05:01:10.414Z,3.42
2019-02-11T05:03:39.402Z,4.47
2019-02-11T05:06:08.481Z,2.85
2019-02-11T05:08:37.363Z,2.72
2019-02-11T05:11:06.252Z,2.95
2019-02-11T05:13:35.141Z,1.22
2019-02-11T05:16:03.818Z,1.95
2019-02-11T05:18:32.612Z,2.30
2019-02-11T05:21:01.713Z,2.55
2019-02-11T05:23:30.500Z,2.10
2019-02-11T05:25:59.414Z,1.25
2019-02-11T05:28:28.282Z,1.45
2019-02-11T05:30:57.166Z,1.60
2019-02-11T05:33:25.965Z,1.85
2019-02-11T05:35:55.058Z,2.35
2019-02-11T05:38:23.945Z,2.62
2019-02-11T05:40:52.744Z,1.42
2019-02-11T05:43:21.726Z,2.15
2019-02-11T05:45:50.518Z,1.75
2019-02-11T05:48:19.291Z,1.52
2019-02-11T05:50:48.496Z,1.77
2019-02-11T05:53:17.151Z,2.30
2019-02-11T05:55:46.082Z,1.80
2019-02-11T05:58:14.872Z,2.27
2019-02-11T06:00:43.761Z,2.50
2019-02-11T06:03:12.334Z,1.90
2019-02-11T06:05:40.971Z,1.80
2019-02-11T06:08:09.642Z,1.40
2019-02-11T06:10:38.236Z,2.12
2019-02-11T06:13:07.054Z,1.60
2019-02-11T06:15:35.646Z,2.05
2019-02-11T06:18:04.317Z,1.90
2019-02-11T06:20:33.181Z,2.58
2019-02-11T06:23:01.900Z,1.50
2019-02-11T06:25:30.557Z,1.80
2019-02-11T06:27:59.272Z,1.90
2019-02-11T06:30:28.092Z,2.02
2019-02-11T06:32:56.977Z,2.08
2019-02-11T06:35:25.657Z,1.75
2019-02-11T06:37:54.441Z,1.60
2019-02-11T06:40:23.337Z,2.15
2019-02-11T06:42:52.331Z,1.52
2019-02-11T06:45:21.226Z,1.60
2019-02-11T06:47:50.116Z,1.75
2019-02-11T06:50:18.909Z,2.60
2019-02-11T06:52:47.681Z,2.10
2019-02-11T06:55:16.471Z,1.95
2019-02-11T06:57:45.462Z,1.50
2019-02-11T07:00:15.311Z,1.47
2019-02-11T07:02:44.081Z,1.85
2019-02-11T07:05:12.972Z,2.20
2019-02-11T07:07:41.741Z,1.80
2019-02-11T07:10:11.707Z,1.80
2019-02-11T07:12:40.550Z,1.85
2019-02-11T07:15:21.229Z,1.60
2019-02-11T07:17:44.072Z,2.00
2019-02-11T07:20:13.161Z,2.02
2019-02-11T07:22:41.951Z,1.80
2019-02-11T07:25:10.741Z,2.70
2019-02-11T07:27:39.631Z,2.05
2019-02-11T07:30:11.137Z,1.40
2019-02-11T07:32:39.751Z,1.37
2019-02-11T07:35:08.557Z,2.50
2019-02-11T07:37:37.457Z,1.75
2019-02-11T07:40:11.091Z,1.60
2019-02-11T07:42:41.559Z,2.10
2019-02-11T07:45:12.926Z,2.00
2019-02-11T07:47:41.723Z,1.70
2019-02-11T07:50:10.606Z,2.20
2019-02-11T07:52:39.497Z,1.70
2019-02-11T07:55:08.287Z,1.80
2019-02-11T07:57:37.486Z,2.65
2019-02-11T08:00:08.422Z,1.90
2019-02-11T08:02:37.220Z,1.20
2019-02-11T08:05:06.802Z,1.85
2019-02-11T08:07:35.710Z,1.57
2019-02-11T08:10:06.508Z,1.80
2019-02-11T08:12:35.449Z,1.80
2019-02-11T08:15:06.471Z,2.60
2019-02-11T08:17:35.361Z,2.20
2019-02-11T08:20:06.256Z,2.37
2019-02-11T08:22:35.227Z,2.10
2019-02-11T08:25:04.367Z,1.85
2019-02-11T08:27:33.392Z,2.22
2019-02-11T08:30:02.066Z,2.72
2019-02-11T08:32:30.975Z,2.08
2019-02-11T08:34:59.959Z,2.80
2019-02-11T08:37:28.746Z,3.20
2019-02-11T08:39:57.532Z,3.37
2019-02-11T08:42:26.516Z,3.40
2019-02-11T08:44:55.416Z,2.85
2019-02-11T08:47:24.418Z,2.30
2019-02-11T08:49:53.396Z,2.87
2019-02-11T08:52:23.949Z,3.05
2019-02-11T08:54:52.402Z,2.65
2019-02-11T08:57:21.181Z,2.62
2019-02-11T08:59:49.772Z,3.02
2019-02-11T09:02:18.671Z,2.60
2019-02-11T09:04:47.506Z,2.90
2019-02-11T09:07:19.111Z,2.40
2019-02-11T09:09:47.771Z,1.85
2019-02-11T09:12:16.651Z,2.05
2019-02-11T09:14:45.334Z,2.33
2019-02-11T09:17:14.016Z,1.60
2019-02-11T09:19:42.736Z,2.00
2019-02-11T09:22:11.316Z,1.70
2019-02-11T09:24:40.016Z,2.30
2019-02-11T09:27:08.706Z,2.30
2019-02-11T09:29:37.371Z,1.55
2019-02-11T09:32:05.951Z,1.98
2019-02-11T09:34:34.656Z,2.20
2019-02-11T09:37:03.531Z,2.12
2019-02-11T09:39:32.192Z,1.62
2019-02-11T09:42:00.812Z,1.62
2019-02-11T09:44:29.942Z,1.90
2019-02-11T09:46:58.731Z,1.92
2019-02-11T09:49:27.564Z,1.90
2019-02-11T09:51:56.221Z,1.75
2019-02-11T09:54:24.897Z,1.87
2019-02-11T09:56:53.791Z,1.75
2019-02-11T09:59:22.481Z,1.70
2019-02-11T10:01:51.142Z,1.80
2019-02-11T10:04:19.901Z,1.67
2019-02-11T10:06:48.535Z,1.30
2019-02-11T10:09:17.120Z,0.90
2019-02-11T10:11:45.801Z,1.20
2019-02-11T10:14:14.401Z,1.60
2019-02-11T10:16:43.073Z,1.50
2019-02-11T10:19:11.874Z,1.77
2019-02-11T10:21:41.113Z,1.12
2019-02-11T10:24:10.011Z,2.20
2019-02-11T10:26:38.788Z,1.75
2019-02-11T10:29:07.477Z,1.70
2019-02-11T10:31:37.186Z,1.55
2019-02-11T10:34:05.980Z,1.80
2019-02-11T10:36:34.756Z,1.60
2019-02-11T10:39:05.051Z,1.82
2019-02-11T10:41:33.904Z,1.87
2019-02-11T10:44:02.512Z,1.62
2019-02-11T10:46:31.365Z,1.25
2019-02-11T10:49:00.146Z,1.17
2019-02-11T10:51:28.927Z,1.82
2019-02-11T10:53:57.611Z,1.37
2019-02-11T10:56:26.502Z,1.45
2019-02-11T10:58:55.196Z,1.70
2019-02-11T11:01:23.950Z,2.05
2019-02-11T11:03:52.871Z,1.27
2019-02-11T11:06:23.212Z,1.70
2019-02-11T11:08:52.191Z,1.37
2019-02-11T11:11:21.281Z,1.20
2019-02-11T11:13:50.071Z,1.52
2019-02-11T11:16:18.859Z,1.10
2019-02-11T11:18:47.971Z,1.52
2019-02-11T11:21:16.737Z,1.72
2019-02-11T11:23:45.526Z,1.10
2019-02-11T11:26:14.550Z,1.35
2019-02-11T11:28:43.202Z,1.10
2019-02-11T11:31:11.886Z,1.98
2019-02-11T11:33:40.779Z,1.60
2019-02-11T11:36:09.565Z,1.75
2019-02-11T11:38:38.366Z,1.20
2019-02-11T11:41:07.257Z,1.22
2019-02-11T11:43:36.046Z,1.70
2019-02-11T11:46:04.936Z,1.30
2019-02-11T11:48:33.609Z,1.60
2019-02-11T11:51:02.301Z,1.75
2019-02-11T11:53:31.196Z,2.05
2019-02-11T11:56:02.382Z,1.90
2019-02-11T11:58:30.411Z,1.72
2019-02-11T12:00:59.202Z,1.75
2019-02-11T12:03:28.394Z,2.27
2019-02-11T12:05:57.327Z,1.50
2019-02-11T12:08:25.863Z,1.60
2019-02-11T12:10:54.765Z,1.55
2019-02-11T12:13:24.029Z,2.55
2019-02-11T12:15:52.936Z,1.80
2019-02-11T12:18:21.730Z,2.45
2019-02-11T12:20:50.526Z,2.72
2019-02-11T12:23:19.422Z,2.47
2019-02-11T12:25:48.098Z,1.87
2019-02-11T12:28:16.779Z,1.65
2019-02-11T12:30:45.485Z,2.60
2019-02-11T12:33:14.371Z,2.05
2019-02-11T12:35:43.156Z,1.50
2019-02-11T12:38:11.830Z,1.98
2019-02-11T12:40:40.929Z,1.62
2019-02-11T12:43:09.834Z,2.80
2019-02-11T12:45:38.510Z,1.50
2019-02-11T12:48:07.509Z,1.52
2019-02-11T12:50:36.391Z,1.75
2019-02-11T12:53:05.184Z,1.60
2019-02-11T12:55:34.064Z,2.27
2019-02-11T12:58:02.768Z,2.15
2019-02-11T13:00:31.541Z,2.33
2019-02-11T13:03:00.651Z,2.00
2019-02-11T13:05:43.916Z,1.40
2019-02-11T13:07:59.964Z,2.02
2019-02-11T13:10:28.838Z,2.20
2019-02-11T13:12:57.530Z,1.60
2019-02-11T13:15:57.352Z,1.85
2019-02-11T13:17:57.144Z,2.10
2019-02-11T13:20:26.354Z,1.72
2019-02-11T13:22:55.443Z,1.75
2019-02-11T13:25:24.368Z,2.15
2019-02-11T13:27:53.242Z,1.50
2019-02-11T13:30:23.537Z,1.80
2019-02-11T13:32:52.590Z,2.70
2019-02-11T13:35:21.441Z,1.62
2019-02-11T13:37:54.777Z,1.67
2019-02-11T13:40:20.883Z,1.77
2019-02-11T13:42:49.547Z,1.80
2019-02-11T13:45:19.895Z,1.67
2019-02-11T13:47:55.246Z,1.75
2019-02-11T13:50:21.744Z,2.08
2019-02-11T13:52:51.042Z,1.95
2019-02-11T13:55:20.057Z,1.92
2019-02-11T13:57:48.840Z,1.82
2019-02-11T14:00:21.822Z,1.52
2019-02-11T14:02:52.803Z,1.92
2019-02-11T14:05:21.648Z,2.15
2019-02-11T14:07:50.537Z,1.57
2019-02-11T14:10:19.526Z,2.02
2019-02-11T14:12:48.590Z,1.65
2019-02-11T14:15:20.489Z,2.17
2019-02-11T14:17:48.147Z,1.47
2019-02-11T14:20:21.864Z,1.52
2019-02-11T14:22:50.740Z,1.62
2019-02-11T14:25:39.048Z,1.40
2019-02-11T14:27:50.086Z,1.90
2019-02-11T14:30:22.862Z,1.12
2019-02-11T14:32:51.954Z,1.40
2019-02-11T14:35:21.283Z,1.45
2019-02-11T14:37:50.347Z,1.40
2019-02-11T14:40:19.258Z,1.70
2019-02-11T14:42:48.331Z,1.82
2019-02-11T14:45:19.783Z,1.30
2019-02-11T14:47:48.781Z,1.42
2019-02-11T14:50:17.580Z,1.30
2019-02-11T14:52:46.662Z,1.47
2019-02-11T14:55:15.431Z,1.32
2019-02-11T14:57:44.236Z,1.45
2019-02-11T15:00:17.727Z,1.50
2019-02-11T15:02:46.643Z,1.47
2019-02-11T15:05:15.478Z,1.40
2019-02-11T15:07:44.316Z,1.65
2019-02-11T15:10:13.407Z,1.50
2019-02-11T15:12:42.077Z,1.22
2019-02-11T15:15:11.996Z,1.40
2019-02-11T15:17:42.166Z,1.37
2019-02-11T15:20:15.526Z,2.00
2019-02-11T15:22:44.233Z,1.77
2019-02-11T15:25:19.451Z,1.62
2019-02-11T15:27:48.076Z,1.32
2019-02-11T15:30:19.951Z,1.55
2019-02-11T15:32:48.677Z,1.47
2019-02-11T15:35:17.352Z,1.77
2019-02-11T15:37:46.457Z,1.40
2019-02-11T15:40:20.586Z,2.08
2019-02-11T15:42:49.450Z,1.60
2019-02-11T15:45:18.331Z,1.40
2019-02-11T15:47:47.239Z,1.75
2019-02-11T15:50:17.320Z,2.47
2019-02-11T15:52:46.240Z,1.45
2019-02-11T15:55:19.772Z,1.67
2019-02-11T15:57:48.650Z,1.47
2019-02-11T16:00:20.290Z,1.65
2019-02-11T16:02:49.171Z,1.50
2019-02-11T16:05:18.073Z,1.87
2019-02-11T16:07:46.956Z,1.50
2019-02-11T16:10:24.856Z,1.57
2019-02-11T16:12:54.056Z,1.77
2019-02-11T16:15:22.961Z,1.77
2019-02-11T16:17:51.535Z,1.40
2019-02-11T16:20:20.422Z,1.42
2019-02-11T16:22:49.060Z,1.40
2019-02-11T16:25:18.036Z,1.65
2019-02-11T16:27:46.859Z,1.47
2019-02-11T16:30:19.800Z,1.72
2019-02-11T16:32:48.593Z,1.52
2019-02-11T16:35:19.052Z,1.57
2019-02-11T16:37:47.745Z,1.70
2019-02-11T16:40:21.880Z,1.40
2019-02-11T16:42:50.670Z,1.50
2019-02-11T16:45:19.275Z,1.12
2019-02-11T16:47:47.996Z,1.65
2019-02-11T16:50:16.653Z,1.77
2019-02-11T16:52:45.295Z,2.12
2019-02-11T16:55:13.913Z,1.52
2019-02-11T16:57:42.885Z,1.25
2019-02-11T17:00:14.066Z,1.98
2019-02-11T17:02:43.325Z,1.77
2019-02-11T17:05:12.631Z,1.90
2019-02-11T17:07:42.260Z,2.02
2019-02-11T17:10:12.778Z,2.75
2019-02-11T17:12:41.527Z,2.10
2019-02-11T17:15:15.867Z,1.98
2019-02-11T17:17:44.392Z,1.72
2019-02-11T17:20:14.872Z,1.70
2019-02-11T17:22:43.718Z,1.77
2019-02-11T17:25:13.070Z,1.70
2019-02-11T17:27:41.880Z,1.98
2019-02-11T17:30:22.755Z,2.30
2019-02-11T17:32:51.623Z,2.10
2019-02-11T17:35:20.630Z,2.40
2019-02-11T17:37:49.411Z,2.33
2019-02-11T17:40:18.523Z,2.10
2019-02-11T17:42:47.301Z,2.15
2019-02-11T17:45:27.960Z,2.20
2019-02-11T17:47:56.854Z,2.02
2019-02-11T17:50:25.641Z,1.82
2019-02-11T17:52:57.599Z,1.90
2019-02-11T17:55:26.285Z,2.22
2019-02-11T17:57:55.080Z,2.50
2019-02-11T18:00:31.753Z,2.00
2019-02-11T18:03:00.531Z,2.25
2019-02-11T18:05:29.425Z,2.20
2019-02-11T18:07:58.534Z,1.95
2019-02-11T18:10:27.218Z,2.10
2019-02-11T18:12:55.888Z,1.82
2019-02-11T18:15:24.781Z,2.17
2019-02-11T18:17:53.570Z,1.60
2019-02-11T18:20:22.366Z,2.00
2019-02-11T18:22:51.359Z,2.00
2019-02-11T18:25:20.141Z,2.00
2019-02-11T18:27:48.922Z,1.62
2019-02-11T18:30:17.760Z,1.30
2019-02-11T18:32:46.966Z,1.87
2019-02-11T18:35:18.260Z,1.72
2019-02-11T18:37:47.350Z,1.70
2019-02-11T18:40:16.250Z,1.77
2019-02-11T18:42:45.086Z,1.82
2019-02-11T18:45:15.526Z,2.08
2019-02-11T18:47:44.463Z,1.70
2019-02-11T18:50:16.320Z,1.37
2019-02-11T18:52:45.206Z,1.90
2019-02-11T18:55:18.704Z,1.80
2019-02-11T18:57:47.493Z,1.60
2019-02-11T19:00:20.007Z,1.85
2019-02-11T19:02:49.338Z,1.65
2019-02-11T19:05:18.275Z,1.75
2019-02-11T19:07:47.355Z,1.70
2019-02-11T19:10:17.495Z,1.42
2019-02-11T19:12:46.356Z,2.00
2019-02-11T19:15:16.542Z,1.87
2019-02-11T19:17:45.375Z,2.00
2019-02-11T19:20:18.265Z,1.80
2019-02-11T19:22:47.050Z,1.80
2019-02-11T19:25:18.805Z,1.40
2019-02-11T19:27:47.692Z,1.70
2019-02-11T19:30:21.308Z,1.80
2019-02-11T19:32:49.980Z,2.50
2019-02-11T19:35:18.618Z,1.92
2019-02-11T19:37:47.352Z,1.80
2019-02-11T19:40:17.750Z,1.80
2019-02-11T19:42:46.362Z,1.47
2019-02-11T19:45:18.033Z,2.08
2019-02-11T19:47:46.685Z,1.80
2019-02-11T19:50:16.866Z,2.20
2019-02-11T19:52:45.605Z,2.20
2019-02-11T19:55:15.486Z,2.05
2019-02-11T19:57:44.415Z,2.25
2019-02-11T20:00:23.445Z,1.70
2019-02-11T20:02:53.365Z,1.87
2019-02-11T20:05:22.055Z,1.85
2019-02-11T20:07:51.146Z,2.10
2019-02-11T20:10:22.544Z,1.75
2019-02-11T20:12:51.477Z,1.65
2019-02-11T20:15:31.437Z,1.77
2019-02-11T20:18:00.331Z,2.20
2019-02-11T20:20:29.000Z,1.98
2019-02-11T20:22:58.124Z,2.00
2019-02-11T20:25:26.991Z,2.08
2019-02-11T20:27:55.688Z,1.62
2019-02-11T20:30:29.319Z,1.70
2019-02-11T20:32:58.166Z,1.80
2019-02-11T20:35:27.067Z,2.10
2019-02-11T20:37:56.263Z,1.82
2019-02-11T20:40:27.340Z,1.90
2019-02-11T20:42:56.301Z,1.80
2019-02-11T20:45:27.841Z,1.90
2019-02-11T20:47:56.760Z,2.70
2019-02-11T20:50:25.631Z,2.33
2019-02-11T20:52:54.525Z,1.82
2019-02-11T20:55:23.310Z,2.10
2019-02-11T20:57:55.169Z,2.42
2019-02-11T21:00:25.688Z,1.85
2019-02-11T21:02:54.492Z,1.50
2019-02-11T21:05:23.769Z,1.77
2019-02-11T21:07:52.476Z,2.00
2019-02-11T21:10:23.505Z,1.90
2019-02-11T21:12:52.306Z,1.95
2019-02-11T21:15:21.077Z,1.92
2019-02-11T21:17:50.086Z,1.77
2019-02-11T21:20:30.305Z,2.25
2019-02-11T21:22:59.126Z,2.20
2019-02-11T21:25:27.812Z,1.98
2019-02-11T21:27:56.714Z,2.50
2019-02-11T21:30:25.596Z,1.98
2019-02-11T21:32:54.375Z,1.90
2019-02-11T21:35:23.383Z,2.25
2019-02-11T21:37:52.051Z,2.17
2019-02-11T21:40:20.718Z,2.42
2019-02-11T21:42:49.323Z,2.20
2019-02-11T21:45:17.901Z,2.30
2019-02-11T21:47:46.944Z,2.52
2019-02-11T21:50:26.311Z,1.98
2019-02-11T21:52:50.652Z,2.33
2019-02-11T21:55:21.694Z,2.15
2019-02-11T21:57:50.354Z,2.10
2019-02-11T22:00:20.414Z,1.82
2019-02-11T22:02:49.121Z,1.90
2019-02-11T22:05:18.046Z,2.20
2019-02-11T22:07:46.942Z,1.70
2019-02-11T22:10:18.291Z,2.10
2019-02-11T22:12:47.280Z,2.05
2019-02-11T22:15:15.941Z,2.08
2019-02-11T22:17:44.851Z,1.90
2019-02-11T22:20:20.933Z,1.60
2019-02-11T22:22:49.782Z,2.10
2019-02-11T22:25:18.709Z,1.72
2019-02-11T22:27:47.689Z,1.85
2019-02-11T22:30:19.160Z,2.00
2019-02-11T22:32:47.916Z,1.77
2019-02-11T22:35:16.815Z,1.80
2019-02-11T22:37:45.796Z,1.72
2019-02-11T22:40:15.310Z,1.52
2019-02-11T22:42:44.202Z,2.02
2019-02-11T22:45:15.360Z,1.60
2019-02-11T22:47:45.776Z,2.02
2019-02-11T22:50:14.949Z,2.40
2019-02-11T22:52:43.726Z,1.82
2019-02-11T22:55:13.755Z,1.72
2019-02-11T22:57:42.552Z,1.90
2019-02-11T23:00:49.034Z,1.90
2019-02-11T23:03:18.131Z,1.98
2019-02-11T23:05:46.930Z,1.95
2019-02-11T23:08:15.806Z,1.47
2019-02-11T23:10:44.813Z,1.80
2019-02-11T23:13:13.691Z,1.60
2019-02-11T23:15:42.394Z,2.05
2019-02-11T23:18:11.461Z,1.50
2019-02-11T23:20:40.364Z,1.35
2019-02-11T23:23:09.138Z,1.32
2019-02-11T23:25:38.360Z,1.20
2019-02-11T23:28:07.141Z,1.42
2019-02-11T23:30:35.829Z,1.37
2019-02-11T23:33:04.704Z,1.65
2019-02-11T23:35:33.341Z,1.80
2019-02-11T23:38:01.946Z,1.85
2019-02-11T23:40:30.782Z,1.62
2019-02-11T23:42:59.958Z,1.92
2019-02-11T23:45:28.856Z,2.30
2019-02-11T23:47:57.771Z,3.10
2019-02-11T23:50:26.371Z,2.12
2019-02-11T23:52:54.997Z,2.35
2019-02-11T23:55:23.653Z,2.12
2019-02-11T23:57:52.251Z,3.15
